Time;durP1;ratioP1;P1;durP2;ratioP2;P2;SDS_P1;SDS_P2;PMS_P1;PMS_P2;Temp;Humidity;BMP_temperature;BMP_pressure;BME280_temperature;BME280_humidity;BME280_pressure;Samples;Min_cycle;Max_cycle;Signal;HPM_P1;HPM_P2
2022/03/29 00:01:10;;;;;;;22.87;12.67;;;7.10;99.90;;;;;;5075499;27;20209;-45
2022/03/29 00:03:36;;;;;;;20.77;12.27;;;7.10;99.90;;;;;;5091066;28;20222;-45
2022/03/29 00:06:05;;;;;;;21.37;12.67;;;7.10;99.90;;;;;;5080816;27;20280;-46
2022/03/29 00:08:32;;;;;;;21.50;12.43;;;7.10;99.90;;;;;;5072567;27;21240;-45
2022/03/29 00:10:59;;;;;;;22.30;12.60;;;7.00;99.90;;;;;;5076743;28;20213;-45
2022/03/29 00:13:26;;;;;;;25.47;12.13;;;7.00;99.90;;;;;;5082128;27;20301;-46
2022/03/29 00:15:53;;;;;;;22.83;12.87;;;6.90;99.90;;;;;;5067126;27;20445;-44
2022/03/29 00:18:20;;;;;;;24.47;12.57;;;6.80;99.90;;;;;;5089052;28;20212;-45
2022/03/29 00:20:46;;;;;;;22.10;11.83;;;6.70;99.90;;;;;;5079123;28;20542;-46
2022/03/29 00:23:15;;;;;;;21.63;12.60;;;6.60;99.90;;;;;;5074105;27;20324;-45
2022/03/29 00:25:41;;;;;;;21.53;11.70;;;6.60;99.90;;;;;;5075440;28;20593;-46
2022/03/29 00:28:08;;;;;;;22.50;12.17;;;6.50;99.90;;;;;;5069683;28;20336;-45
2022/03/29 00:30:35;;;;;;;18.97;11.80;;;6.50;99.90;;;;;;5077151;28;20535;-45
2022/03/29 00:33:02;;;;;;;21.80;10.93;;;6.40;99.90;;;;;;5093505;27;20984;-46
2022/03/29 00:35:29;;;;;;;21.83;12.37;;;6.40;99.90;;;;;;5087921;27;20207;-45
2022/03/29 00:37:56;;;;;;;19.13;11.57;;;6.40;99.90;;;;;;5062664;28;20407;-46
2022/03/29 00:40:24;;;;;;;25.23;12.77;;;6.30;99.90;;;;;;5079701;27;20202;-45
2022/03/29 00:42:51;;;;;;;23.63;12.67;;;6.40;99.90;;;;;;5070910;28;21221;-45
2022/03/29 00:45:18;;;;;;;21.67;12.53;;;6.40;99.90;;;;;;5057372;28;20204;-45
2022/03/29 00:47:45;;;;;;;19.33;12.27;;;6.40;99.90;;;;;;5093626;28;20281;-46
2022/03/29 00:50:12;;;;;;;23.77;12.90;;;6.50;99.90;;;;;;5090943;28;20592;-47
2022/03/29 00:52:40;;;;;;;19.70;12.37;;;6.50;99.90;;;;;;5081439;28;20557;-46
2022/03/29 00:55:08;;;;;;;25.57;13.67;;;6.50;99.90;;;;;;5075982;28;20412;-47
2022/03/29 00:57:37;;;;;;;27.17;14.27;;;6.50;99.90;;;;;;5059762;27;20208;-44
2022/03/29 01:00:06;;;;;;;27.97;13.37;;;6.50;99.90;;;;;;5078010;27;20229;-47
2022/03/29 01:02:33;;;;;;;28.40;14.70;;;6.50;99.90;;;;;;5079288;27;20202;-44
2022/03/29 01:05:00;;;;;;;20.63;13.27;;;6.50;99.90;;;;;;5094391;27;20256;-47
2022/03/29 01:07:28;;;;;;;25.20;13.20;;;6.50;99.90;;;;;;5088668;28;20577;-47
2022/03/29 01:09:55;;;;;;;23.43;13.10;;;6.50;99.90;;;;;;5077405;27;20340;-45
2022/03/29 01:12:24;;;;;;;26.20;14.03;;;6.50;99.90;;;;;;5080044;28;20192;-47
2022/03/29 01:14:54;;;;;;;27.83;13.83;;;6.50;99.90;;;;;;5064440;28;20720;-45
2022/03/29 01:17:40;;;;;;;25.47;13.40;;;6.60;99.90;;;;;;5066186;28;20210;-46
2022/03/29 01:20:09;;;;;;;21.27;13.03;;;6.60;99.90;;;;;;5089691;28;20266;-46
2022/03/29 01:22:41;;;;;;;27.17;13.83;;;6.60;99.90;;;;;;5067651;28;21001;-45
2022/03/29 01:25:10;;;;;;;25.80;14.20;;;6.60;99.90;;;;;;5082773;28;20212;-46
2022/03/29 01:27:39;;;;;;;24.30;13.77;;;6.60;99.90;;;;;;5075876;28;20220;-45
2022/03/29 01:30:07;;;;;;;20.20;12.83;;;6.60;99.90;;;;;;5057105;28;20254;-46
2022/03/29 01:32:35;;;;;;;22.07;13.77;;;6.60;99.90;;;;;;5080481;28;20346;-45
2022/03/29 01:35:04;;;;;;;25.57;13.80;;;6.60;99.90;;;;;;5093450;28;20265;-47
2022/03/29 01:37:31;;;;;;;31.13;14.10;;;6.60;99.90;;;;;;5071938;28;20230;-45
2022/03/29 01:40:00;;;;;;;23.03;12.97;;;6.60;99.90;;;;;;5081866;28;20531;-46
2022/03/29 01:42:27;;;;;;;25.17;12.93;;;6.60;99.90;;;;;;5079691;28;20275;-47
2022/03/29 01:44:54;;;;;;;26.37;13.37;;;6.60;99.90;;;;;;5068017;27;20226;-45
2022/03/29 01:47:22;;;;;;;23.17;13.27;;;6.60;99.90;;;;;;5076929;28;22919;-47
2022/03/29 01:49:50;;;;;;;28.87;14.23;;;6.60;99.90;;;;;;5093857;28;23396;-44
2022/03/29 01:52:17;;;;;;;23.30;13.37;;;6.70;99.90;;;;;;5061748;28;20214;-47
2022/03/29 01:54:44;;;;;;;23.33;12.57;;;6.60;99.90;;;;;;5081965;28;20220;-46
2022/03/29 01:57:13;;;;;;;23.10;13.20;;;6.70;99.90;;;;;;5079786;28;20508;-46
2022/03/29 02:02:24;;;;;;;25.90;13.13;;;6.70;99.90;;;;;;5060492;28;20747;-45
2022/03/29 02:04:51;;;;;;;25.17;14.37;;;6.60;99.90;;;;;;5089614;28;20919;-45
2022/03/29 02:07:18;;;;;;;29.67;13.77;;;6.60;99.90;;;;;;5076004;28;20306;-47
2022/03/29 02:09:45;;;;;;;28.07;13.37;;;6.60;99.90;;;;;;5087732;28;20231;-45
2022/03/29 02:12:13;;;;;;;24.40;14.10;;;6.70;99.90;;;;;;5076763;28;20278;-46
2022/03/29 02:14:40;;;;;;;29.77;15.10;;;6.60;99.90;;;;;;5050517;28;20230;-44
2022/03/29 02:17:07;;;;;;;24.57;13.17;;;6.60;99.90;;;;;;5087367;28;20302;-44
2022/03/29 02:19:34;;;;;;;26.07;13.93;;;6.60;99.90;;;;;;5079891;28;20614;-46
2022/03/29 02:22:01;;;;;;;26.60;12.97;;;6.60;99.90;;;;;;5085894;28;20278;-44
2022/03/29 02:24:28;;;;;;;26.30;12.80;;;6.60;99.90;;;;;;5079951;27;20423;-46
2022/03/29 02:26:55;;;;;;;25.27;14.83;;;6.60;99.90;;;;;;5082510;28;20208;-45
2022/03/29 02:29:23;;;;;;;31.43;14.13;;;6.60;99.90;;;;;;5057806;28;20671;-46
2022/03/29 02:31:50;;;;;;;23.87;14.30;;;6.60;99.90;;;;;;5071300;28;20468;-45
2022/03/29 02:34:16;;;;;;;25.30;13.57;;;6.60;99.90;;;;;;5076720;28;20232;-49
2022/03/29 02:36:43;;;;;;;26.07;14.63;;;6.70;99.90;;;;;;5088904;28;20424;-45
2022/03/29 02:39:10;;;;;;;27.63;13.70;;;6.70;99.90;;;;;;5071301;28;20231;-49
2022/03/29 02:42:24;;;;;;;23.33;13.83;;;6.70;99.90;;;;;;5078017;28;20579;-46
2022/03/29 02:44:52;;;;;;;31.57;14.00;;;6.70;99.90;;;;;;5079362;28;20242;-45
2022/03/29 02:47:20;;;;;;;28.10;13.20;;;6.70;99.90;;;;;;5066384;28;20228;-43
2022/03/29 02:49:47;;;;;;;26.00;15.00;;;6.70;99.90;;;;;;5076934;28;20390;-49
2022/03/29 02:52:14;;;;;;;31.63;13.77;;;6.70;99.90;;;;;;5083077;28;20613;-49
2022/03/29 02:54:41;;;;;;;24.83;13.70;;;6.70;99.90;;;;;;5078346;28;20259;-45
2022/03/29 02:57:09;;;;;;;29.93;14.20;;;6.70;99.90;;;;;;5080659;28;20215;-49
2022/03/29 02:59:36;;;;;;;27.37;13.77;;;6.70;99.90;;;;;;5071343;28;20210;-44
2022/03/29 03:02:05;;;;;;;23.63;14.20;;;6.70;99.90;;;;;;5071346;27;20227;-49
2022/03/29 03:04:32;;;;;;;25.67;14.70;;;6.70;99.90;;;;;;5078008;28;21083;-45
2022/03/29 03:06:59;;;;;;;26.07;14.83;;;6.70;99.90;;;;;;5090078;28;20471;-43
2022/03/29 03:09:25;;;;;;;27.23;13.50;;;6.70;99.90;;;;;;5064360;27;21335;-47
2022/03/29 03:11:52;;;;;;;27.60;13.97;;;6.70;99.90;;;;;;5089950;27;20762;-47
2022/03/29 03:14:19;;;;;;;25.97;13.40;;;6.70;99.90;;;;;;5068607;27;20793;-47
2022/03/29 03:16:46;;;;;;;30.03;15.50;;;6.60;99.90;;;;;;5076694;28;20212;-48
2022/03/29 03:19:15;;;;;;;24.70;13.90;;;6.60;99.90;;;;;;5075164;28;20204;-49
2022/03/29 03:21:42;;;;;;;25.80;14.07;;;6.70;99.90;;;;;;5078438;28;20269;-43
2022/03/29 03:24:09;;;;;;;26.37;13.87;;;6.70;99.90;;;;;;5091052;27;20250;-48
2022/03/29 03:26:35;;;;;;;27.10;14.00;;;6.70;99.90;;;;;;5075713;27;20432;-46
2022/03/29 03:29:02;;;;;;;25.93;14.00;;;6.70;99.90;;;;;;5078944;28;20660;-46
2022/03/29 03:31:29;;;;;;;25.80;13.60;;;6.70;99.90;;;;;;5077229;27;20383;-45
2022/03/29 03:33:56;;;;;;;22.47;14.47;;;6.70;99.90;;;;;;5075178;27;20251;-46
2022/03/29 03:36:24;;;;;;;21.70;14.13;;;6.70;99.90;;;;;;5078238;27;20471;-45
2022/03/29 03:38:51;;;;;;;29.57;13.77;;;6.70;99.90;;;;;;5092133;28;20211;-45
2022/03/29 03:41:18;;;;;;;27.53;15.30;;;6.70;99.90;;;;;;5087172;28;20761;-46
2022/03/29 03:43:45;;;;;;;28.93;16.60;;;6.70;99.90;;;;;;5084010;27;20749;-45
2022/03/29 03:46:12;;;;;;;28.20;15.27;;;6.70;99.90;;;;;;5065808;27;20214;-46
2022/03/29 03:48:39;;;;;;;28.37;14.97;;;6.70;99.90;;;;;;5065513;28;20480;-44
2022/03/29 03:51:06;;;;;;;30.27;15.83;;;6.70;99.90;;;;;;5088653;28;20561;-46
2022/03/29 03:53:34;;;;;;;26.90;14.63;;;6.70;99.90;;;;;;5079238;28;20423;-47
2022/03/29 03:56:01;;;;;;;31.93;15.43;;;6.70;99.90;;;;;;5077234;28;20264;-46
2022/03/29 03:58:28;;;;;;;30.77;15.73;;;6.70;99.90;;;;;;5090762;28;20471;-45
2022/03/29 04:00:55;;;;;;;29.57;14.50;;;6.70;99.90;;;;;;5075088;27;20209;-46
2022/03/29 04:03:22;;;;;;;30.33;14.80;;;6.80;99.90;;;;;;5054005;27;20958;-45
2022/03/29 04:05:48;;;;;;;25.27;14.03;;;6.80;99.90;;;;;;5079113;27;20208;-45
2022/03/29 04:08:15;;;;;;;33.07;14.53;;;6.90;99.90;;;;;;5071258;28;20225;-45
2022/03/29 04:10:43;;;;;;;27.87;14.03;;;6.90;99.90;;;;;;5064900;27;20228;-45
2022/03/29 04:13:10;;;;;;;24.73;14.03;;;6.80;99.90;;;;;;5080513;27;21017;-46
2022/03/29 04:15:37;;;;;;;21.77;13.97;;;6.80;99.90;;;;;;5077186;27;20278;-46
2022/03/29 04:18:05;;;;;;;22.83;13.80;;;6.80;99.90;;;;;;5087676;28;21541;-46
2022/03/29 04:20:32;;;;;;;25.80;14.47;;;6.90;99.90;;;;;;5062720;28;20234;-44
2022/03/29 04:22:59;;;;;;;25.73;13.93;;;6.90;99.90;;;;;;5085231;28;20298;-45
2022/03/29 04:25:26;;;;;;;24.47;14.80;;;6.80;99.90;;;;;;5083493;27;20246;-45
2022/03/29 04:27:54;;;;;;;26.23;14.60;;;6.80;99.90;;;;;;5082336;27;20666;-44
2022/03/29 04:30:21;;;;;;;29.47;14.67;;;6.80;99.90;;;;;;5078082;28;20220;-47
2022/03/29 04:32:48;;;;;;;25.80;14.10;;;6.80;99.90;;;;;;5074619;27;20210;-45
2022/03/29 04:35:15;;;;;;;27.27;15.57;;;6.80;99.90;;;;;;5074538;28;20261;-45
2022/03/29 04:37:42;;;;;;;27.90;15.33;;;6.80;99.90;;;;;;5079418;28;20291;-45
2022/03/29 04:40:10;;;;;;;23.07;13.50;;;6.80;99.90;;;;;;5084917;28;20226;-45
2022/03/29 04:42:49;;;;;;;27.17;14.73;;;6.80;99.90;;;;;;5081060;27;20218;-47
2022/03/29 04:45:18;;;;;;;27.13;14.37;;;6.80;99.90;;;;;;5083790;27;20278;-47
2022/03/29 04:47:46;;;;;;;28.43;15.43;;;6.80;99.90;;;;;;5068457;27;20208;-46
2022/03/29 04:50:15;;;;;;;29.77;14.47;;;6.80;99.90;;;;;;5058874;28;20231;-47
2022/03/29 04:52:44;;;;;;;33.80;14.87;;;6.90;99.90;;;;;;5080532;27;20319;-45
2022/03/29 04:55:12;;;;;;;24.63;13.80;;;6.80;99.90;;;;;;5073004;28;20215;-47
2022/03/29 04:57:41;;;;;;;26.80;14.27;;;6.80;99.90;;;;;;5086372;27;20204;-46
2022/03/29 05:00:09;;;;;;;32.20;15.70;;;6.80;99.90;;;;;;5087745;28;20476;-47
2022/03/29 05:02:37;;;;;;;23.73;14.57;;;6.80;99.90;;;;;;5068684;28;20211;-45
2022/03/29 05:05:05;;;;;;;27.70;14.33;;;6.80;99.90;;;;;;5056383;27;20236;-46
2022/03/29 05:07:32;;;;;;;27.67;15.40;;;6.80;99.90;;;;;;5086386;27;20319;-47
2022/03/29 05:09:59;;;;;;;28.53;15.47;;;6.80;99.90;;;;;;5071069;28;20307;-46
2022/03/29 05:12:26;;;;;;;38.17;15.73;;;6.80;99.90;;;;;;5081956;27;20234;-46
2022/03/29 05:14:53;;;;;;;33.10;14.83;;;6.80;99.90;;;;;;5073567;28;20303;-45
2022/03/29 05:17:20;;;;;;;24.47;14.77;;;6.80;99.90;;;;;;5081630;28;20208;-46
2022/03/29 05:19:48;;;;;;;24.93;13.93;;;6.80;99.90;;;;;;5078784;27;20200;-45
2022/03/29 05:22:15;;;;;;;29.03;15.57;;;6.80;99.90;;;;;;5071630;28;20222;-46
2022/03/29 05:24:42;;;;;;;28.17;15.50;;;6.80;99.90;;;;;;5080502;28;20633;-49
2022/03/29 05:27:08;;;;;;;26.43;15.10;;;6.80;99.90;;;;;;5084508;28;20283;-49
2022/03/29 05:29:35;;;;;;;24.27;14.17;;;6.80;99.90;;;;;;5073038;28;20211;-48
2022/03/29 05:32:02;;;;;;;26.93;14.13;;;6.80;99.90;;;;;;5081604;28;20221;-45
2022/03/29 05:34:29;;;;;;;24.80;14.37;;;6.80;99.90;;;;;;5080982;28;20309;-44
2022/03/29 05:36:57;;;;;;;29.57;14.27;;;6.80;99.90;;;;;;5066741;28;20205;-46
2022/03/29 05:39:24;;;;;;;29.93;13.63;;;6.80;99.90;;;;;;5096943;28;20271;-46
2022/03/29 05:41:51;;;;;;;27.63;14.27;;;6.80;99.90;;;;;;5088816;28;20224;-45
2022/03/29 05:44:18;;;;;;;23.67;14.37;;;6.80;99.90;;;;;;5084977;28;20578;-45
2022/03/29 05:49:30;;;;;;;22.83;13.00;;;6.90;99.90;;;;;;5081821;28;20210;-46
2022/03/29 05:51:58;;;;;;;25.00;14.13;;;6.80;99.90;;;;;;5085660;28;20224;-46
2022/03/29 05:54:25;;;;;;;27.93;14.50;;;6.80;99.90;;;;;;5077584;28;20573;-46
2022/03/29 05:56:53;;;;;;;22.97;14.53;;;6.80;99.90;;;;;;5092872;28;20202;-47
2022/03/29 05:59:20;;;;;;;25.23;12.80;;;6.80;99.90;;;;;;5079062;28;20230;-46
2022/03/29 06:01:47;;;;;;;24.20;12.27;;;6.80;99.90;;;;;;5089121;28;20474;-46
2022/03/29 06:04:14;;;;;;;26.10;11.43;;;6.80;99.90;;;;;;5079103;28;20460;-45
2022/03/29 06:06:42;;;;;;;22.23;9.30;;;6.80;99.90;;;;;;5083432;28;20233;-46
2022/03/29 06:09:10;;;;;;;29.93;9.37;;;6.80;99.90;;;;;;5073824;28;20282;-44
2022/03/29 06:11:37;;;;;;;18.57;7.63;;;6.70;99.90;;;;;;5092507;28;20455;-46
2022/03/29 06:14:04;;;;;;;16.77;8.23;;;6.70;99.90;;;;;;5081227;28;20237;-47
2022/03/29 06:16:31;;;;;;;28.17;8.93;;;6.70;99.90;;;;;;5088736;28;20271;-46
2022/03/29 06:18:58;;;;;;;30.73;7.90;;;6.70;99.90;;;;;;5084714;28;20211;-46
2022/03/29 06:21:25;;;;;;;15.03;7.33;;;6.80;99.90;;;;;;5096858;28;20296;-45
2022/03/29 06:23:52;;;;;;;19.03;8.33;;;6.80;99.90;;;;;;5060432;28;20228;-47
2022/03/29 06:26:20;;;;;;;18.33;8.33;;;6.80;99.90;;;;;;5079159;28;20299;-45
2022/03/29 06:28:47;;;;;;;18.67;8.33;;;6.80;99.90;;;;;;5084044;28;20284;-46
2022/03/29 06:31:14;;;;;;;18.60;8.40;;;6.90;99.90;;;;;;5071871;28;20835;-46
2022/03/29 06:33:41;;;;;;;21.53;8.10;;;6.90;99.90;;;;;;5096696;28;20235;-44
2022/03/29 06:36:07;;;;;;;17.43;7.90;;;6.90;99.90;;;;;;5071568;28;20703;-45
2022/03/29 06:38:34;;;;;;;25.83;8.03;;;6.90;99.90;;;;;;5083150;28;20217;-45
2022/03/29 06:41:01;;;;;;;17.23;6.60;;;6.90;99.90;;;;;;5072409;27;20523;-44
2022/03/29 06:43:29;;;;;;;16.77;6.63;;;6.80;99.90;;;;;;5095639;27;20222;-44
2022/03/29 06:45:56;;;;;;;14.77;6.73;;;6.80;99.90;;;;;;5080186;27;20284;-45
2022/03/29 06:48:25;;;;;;;21.00;7.23;;;6.80;99.90;;;;;;5090807;28;20327;-45
2022/03/29 06:50:51;;;;;;;17.37;6.90;;;6.80;99.90;;;;;;5086228;27;20260;-46
2022/03/29 06:53:18;;;;;;;25.80;7.27;;;6.80;99.90;;;;;;5085666;27;20294;-48
2022/03/29 06:55:45;;;;;;;22.47;7.43;;;6.80;99.90;;;;;;5068602;27;20218;-47
2022/03/29 06:58:12;;;;;;;22.10;7.33;;;6.90;99.90;;;;;;5101677;28;20226;-49
2022/03/29 07:00:41;;;;;;;23.57;7.30;;;6.90;99.90;;;;;;5087902;27;20303;-44
2022/03/29 07:03:08;;;;;;;17.43;6.57;;;6.90;99.90;;;;;;5075994;28;20228;-45
2022/03/29 07:05:36;;;;;;;14.30;5.80;;;6.90;99.90;;;;;;5090291;27;20208;-45
2022/03/29 07:08:03;;;;;;;21.40;6.20;;;7.00;99.90;;;;;;5090030;28;20472;-45
2022/03/29 07:13:14;;;;;;;14.60;4.53;;;7.00;99.90;;;;;;5087819;27;20478;-44
2022/03/29 07:15:43;;;;;;;15.60;5.70;;;7.00;99.90;;;;;;5083461;27;20282;-44
2022/03/29 07:18:09;;;;;;;12.60;5.47;;;6.90;99.90;;;;;;5072174;27;20282;-45
2022/03/29 07:20:36;;;;;;;12.57;4.30;;;7.00;99.90;;;;;;5088856;27;20210;-44
2022/03/29 07:23:03;;;;;;;23.17;5.33;;;7.00;99.90;;;;;;5074628;27;20371;-45
2022/03/29 07:25:32;;;;;;;16.40;5.53;;;6.90;99.90;;;;;;5095201;27;20305;-45
2022/03/29 07:27:59;;;;;;;15.27;5.53;;;6.90;99.90;;;;;;5069110;28;20396;-44
2022/03/29 07:30:26;;;;;;;20.03;6.07;;;6.90;99.90;;;;;;5085788;27;20280;-45
2022/03/29 07:32:57;;;;;;;13.90;4.97;;;6.90;99.90;;;;;;5079850;27;20467;-44
2022/03/29 07:35:25;;;;;;;19.53;4.87;;;6.90;99.90;;;;;;5097439;27;20256;-44
2022/03/29 07:37:52;;;;;;;16.77;4.60;;;7.00;99.90;;;;;;5085999;27;20616;-44
2022/03/29 07:40:21;;;;;;;25.87;5.03;;;7.00;99.90;;;;;;5083088;27;20209;-45
2022/03/29 07:42:49;;;;;;;12.20;4.53;;;7.00;99.90;;;;;;5072948;28;20516;-45
2022/03/29 07:45:17;;;;;;;13.20;3.83;;;7.10;99.90;;;;;;5095812;27;20224;-48
2022/03/29 07:47:45;;;;;;;16.80;4.43;;;7.10;99.90;;;;;;5084974;28;20245;-49
2022/03/29 07:50:13;;;;;;;15.83;4.73;;;7.10;99.90;;;;;;5089349;28;20267;-45
2022/03/29 07:52:41;;;;;;;21.93;4.73;;;7.10;99.90;;;;;;5085446;28;20316;-45
2022/03/29 07:55:11;;;;;;;16.10;3.93;;;7.10;99.90;;;;;;5095776;28;20317;-45
2022/03/29 07:57:39;;;;;;;21.23;4.63;;;7.10;99.90;;;;;;5067618;27;20246;-45
2022/03/29 08:02:49;;;;;;;13.60;3.37;;;7.10;99.90;;;;;;5085028;28;20202;-44
2022/03/29 08:05:17;;;;;;;11.73;2.33;;;7.10;99.90;;;;;;5093296;27;20212;-45
2022/03/29 08:07:44;;;;;;;16.83;3.27;;;7.00;99.90;;;;;;5084774;27;20205;-45
2022/03/29 08:10:11;;;;;;;13.50;3.67;;;7.10;99.90;;;;;;5088164;28;20204;-45
2022/03/29 08:12:38;;;;;;;19.43;3.20;;;7.10;99.90;;;;;;5069238;27;20671;-45
2022/03/29 08:15:06;;;;;;;12.30;3.07;;;7.20;99.90;;;;;;5106402;28;20291;-45
2022/03/29 08:17:33;;;;;;;22.30;3.37;;;7.20;99.90;;;;;;5088416;28;20206;-45
2022/03/29 08:19:59;;;;;;;14.53;3.40;;;7.30;99.90;;;;;;5095427;27;20214;-45
2022/03/29 08:22:28;;;;;;;13.93;3.37;;;7.30;99.90;;;;;;5085102;27;20262;-45
2022/03/29 08:24:55;;;;;;;16.10;3.50;;;7.20;99.90;;;;;;5092617;27;20465;-44
2022/03/29 08:27:21;;;;;;;27.70;3.73;;;7.20;99.90;;;;;;5093671;28;20554;-45
2022/03/29 08:29:48;;;;;;;17.17;2.90;;;7.10;99.90;;;;;;5089037;28;20487;-45
2022/03/29 08:32:16;;;;;;;13.57;3.27;;;7.10;99.90;;;;;;5105712;28;20223;-44
2022/03/29 08:34:42;;;;;;;20.57;3.33;;;7.10;99.90;;;;;;5072764;28;20236;-45
2022/03/29 08:37:09;;;;;;;19.77;3.40;;;7.10;99.90;;;;;;5095083;28;20406;-45
2022/03/29 08:39:38;;;;;;;23.17;3.90;;;7.20;99.90;;;;;;5086430;27;20209;-42
2022/03/29 08:42:09;;;;;;;18.43;3.43;;;7.30;99.90;;;;;;5095567;27;20658;-48
2022/03/29 08:44:36;;;;;;;15.10;3.27;;;7.30;99.90;;;;;;5082455;28;20454;-45
2022/03/29 08:47:06;;;;;;;16.80;4.57;;;7.30;99.90;;;;;;5091228;28;20195;-48
2022/03/29 08:49:34;;;;;;;13.47;3.37;;;7.20;99.90;;;;;;5088364;28;20208;-45
2022/03/29 08:52:01;;;;;;;11.93;3.23;;;7.10;99.90;;;;;;5087408;28;20532;-44
2022/03/29 08:54:29;;;;;;;10.80;2.47;;;7.10;99.90;;;;;;5086596;27;20312;-45
2022/03/29 08:56:57;;;;;;;18.80;3.03;;;7.30;99.90;;;;;;5091125;28;20220;-44
2022/03/29 08:59:25;;;;;;;18.47;4.07;;;7.50;99.90;;;;;;5082193;28;20212;-48
2022/03/29 09:01:52;;;;;;;13.67;2.97;;;7.50;99.90;;;;;;5095429;28;20207;-47
2022/03/29 09:04:23;;;;;;;14.00;3.30;;;7.40;99.90;;;;;;5086597;28;20506;-45
2022/03/29 09:07:01;;;;;;;11.00;3.63;;;7.30;99.90;;;;;;5096452;27;20438;-43
2022/03/29 09:09:29;;;;;;;20.73;3.77;;;7.40;99.90;;;;;;5081717;27;20427;-44
2022/03/29 09:11:59;;;;;;;17.70;3.87;;;7.30;99.90;;;;;;5087453;28;20225;-44
2022/03/29 09:14:28;;;;;;;10.47;2.90;;;7.40;99.90;;;;;;5070946;28;20229;-44
2022/03/29 09:16:55;;;;;;;17.87;3.60;;;7.40;99.90;;;;;;5093845;27;20500;-46
2022/03/29 09:19:25;;;;;;;15.03;3.80;;;7.40;99.90;;;;;;5089911;27;20720;-45
2022/03/29 09:21:54;;;;;;;12.57;3.43;;;7.40;99.90;;;;;;5096716;27;20208;-45
2022/03/29 09:24:21;;;;;;;16.83;3.20;;;7.40;99.90;;;;;;5091200;27;20327;-45
2022/03/29 09:26:50;;;;;;;15.10;3.73;;;7.40;99.90;;;;;;5093584;28;20205;-46
2022/03/29 09:29:20;;;;;;;17.40;3.77;;;7.40;99.90;;;;;;5091986;27;20200;-44
2022/03/29 09:31:50;;;;;;;15.13;3.80;;;7.40;99.90;;;;;;5081353;27;20299;-46
2022/03/29 09:34:19;;;;;;;14.07;3.50;;;7.30;99.90;;;;;;5088023;28;20436;-45
2022/03/29 09:36:48;;;;;;;12.10;3.80;;;7.30;99.90;;;;;;5101373;28;20228;-46
2022/03/29 09:39:36;;;;;;;16.17;3.73;;;7.40;99.90;;;;;;5091139;28;20604;-44
2022/03/29 09:42:05;;;;;;;19.87;4.60;;;7.40;99.90;;;;;;5091542;28;20448;-46
2022/03/29 09:44:40;;;;;;;21.63;3.60;;;7.40;99.90;;;;;;5092990;28;20611;-45
2022/03/29 09:47:09;;;;;;;18.33;3.60;;;7.50;99.90;;;;;;5081536;27;20268;-44
2022/03/29 09:49:57;;;;;;;15.40;4.43;;;7.50;99.90;;;;;;5102196;28;20272;-45
2022/03/29 09:52:25;;;;;;;13.93;3.70;;;7.40;99.90;;;;;;5091498;28;20222;-44
2022/03/29 09:55:14;;;;;;;10.33;3.70;;;7.60;99.90;;;;;;5094622;28;20293;-46
2022/03/29 09:57:44;;;;;;;14.80;4.73;;;7.60;99.90;;;;;;5096430;28;20522;-42
2022/03/29 10:00:14;;;;;;;12.03;3.63;;;7.60;99.90;;;;;;5097826;28;20224;-42
2022/03/29 10:02:44;;;;;;;24.43;4.37;;;7.50;99.90;;;;;;5085711;28;20225;-42
2022/03/29 10:05:13;;;;;;;18.67;4.20;;;7.50;99.90;;;;;;5092712;28;20776;-44
2022/03/29 10:07:43;;;;;;;10.77;4.10;;;7.50;99.90;;;;;;5104693;28;20204;-44
2022/03/29 10:10:11;;;;;;;17.90;4.67;;;7.50;99.90;;;;;;5099236;28;20207;-44
2022/03/29 10:12:39;;;;;;;12.60;4.53;;;7.60;99.90;;;;;;5102684;28;20229;-45
2022/03/29 10:15:07;;;;;;;16.23;4.60;;;7.60;99.90;;;;;;5101359;28;20228;-45
2022/03/29 10:17:36;;;;;;;19.47;6.13;;;7.70;99.90;;;;;;5087032;27;20280;-43
2022/03/29 10:20:06;;;;;;;13.37;4.63;;;7.80;99.90;;;;;;5085622;28;20276;-44
2022/03/29 10:22:35;;;;;;;13.83;5.40;;;7.90;99.90;;;;;;5097840;28;20206;-44
2022/03/29 10:25:02;;;;;;;14.33;4.63;;;7.90;99.90;;;;;;5081320;28;20230;-43
2022/03/29 10:27:29;;;;;;;15.57;4.07;;;8.00;99.90;;;;;;5101261;27;20273;-45
2022/03/29 10:29:57;;;;;;;18.87;4.37;;;7.90;99.90;;;;;;5096749;28;20204;-44
2022/03/29 10:32:32;;;;;;;12.17;4.27;;;7.90;99.90;;;;;;5090522;27;20246;-45
2022/03/29 10:35:07;;;;;;;11.90;4.47;;;7.90;99.90;;;;;;5097597;28;20306;-44
2022/03/29 10:37:56;;;;;;;16.73;4.20;;;7.80;99.90;;;;;;5091796;28;20228;-45
2022/03/29 10:40:41;;;;;;;15.00;4.60;;;7.80;99.90;;;;;;5090203;27;20201;-45
2022/03/29 10:43:27;;;;;;;14.37;4.47;;;7.70;99.90;;;;;;5090395;28;20407;-45
2022/03/29 10:45:54;;;;;;;11.33;4.80;;;7.70;99.90;;;;;;5095310;27;20289;-43
2022/03/29 10:48:21;;;;;;;13.40;4.83;;;7.80;99.90;;;;;;5080116;28;20673;-45
2022/03/29 10:51:01;;;;;;;12.63;3.77;;;7.90;99.90;;;;;;5096185;27;20212;-46
2022/03/29 10:53:31;;;;;;;13.07;3.87;;;7.80;99.90;;;;;;5103809;27;20312;-44
2022/03/29 10:56:23;;;;;;;10.40;3.87;;;7.70;99.90;;;;;;5091782;28;20281;-48
2022/03/29 10:59:13;;;;;;;11.17;4.03;;;7.80;99.90;;;;;;5103695;27;20237;-47
2022/03/29 11:01:42;;;;;;;13.90;5.50;;;7.80;99.90;;;;;;5107060;28;20214;-44
2022/03/29 11:04:20;;;;;;;23.10;4.70;;;7.80;99.90;;;;;;5084989;28;20224;-45
2022/03/29 11:07:14;;;;;;;13.23;4.20;;;7.80;99.90;;;;;;5103555;28;20221;-45
2022/03/29 11:09:44;;;;;;;21.87;5.03;;;7.60;99.90;;;;;;5102971;27;20211;-46
2022/03/29 11:12:37;;;;;;;16.53;5.13;;;7.80;99.90;;;;;;5090371;27;20725;-43
2022/03/29 11:15:41;;;;;;;15.47;4.83;;;7.90;99.90;;;;;;5100710;28;20415;-45
2022/03/29 11:18:47;;;;;;;13.87;4.80;;;8.00;99.90;;;;;;5098892;27;20337;-45
2022/03/29 11:21:39;;;;;;;11.00;4.03;;;7.90;99.90;;;;;;5083239;27;20208;-44
2022/03/29 11:24:11;;;;;;;18.17;4.60;;;8.00;99.90;;;;;;5079421;27;20249;-46
2022/03/29 11:26:52;;;;;;;10.93;4.83;;;8.00;99.90;;;;;;5082669;28;20211;-44
2022/03/29 11:29:20;;;;;;;11.60;4.70;;;8.00;99.90;;;;;;5095235;28;20505;-44
2022/03/29 11:31:50;;;;;;;10.70;4.70;;;8.10;99.90;;;;;;5099204;28;20565;-46
2022/03/29 11:34:17;;;;;;;13.60;4.80;;;8.00;99.90;;;;;;5075968;27;20230;-45
2022/03/29 11:36:44;;;;;;;15.63;5.90;;;8.00;99.90;;;;;;5070889;27;20543;-46
2022/03/29 11:39:28;;;;;;;12.87;4.83;;;7.90;99.90;;;;;;5078268;27;20434;-44
2022/03/29 11:41:56;;;;;;;9.20;5.17;;;7.90;99.90;;;;;;5082420;27;20222;-44
2022/03/29 11:44:25;;;;;;;15.20;5.60;;;7.90;99.90;;;;;;5088218;27;20332;-46
2022/03/29 11:46:54;;;;;;;13.77;4.57;;;7.90;99.90;;;;;;5092946;27;20214;-45
2022/03/29 11:49:26;;;;;;;15.30;4.77;;;8.00;99.90;;;;;;5082829;27;20213;-46
2022/03/29 11:52:12;;;;;;;16.10;4.53;;;7.90;99.90;;;;;;5083615;28;20205;-46
2022/03/29 11:54:42;;;;;;;18.77;5.10;;;7.90;99.90;;;;;;5088121;27;20283;-49
2022/03/29 11:57:21;;;;;;;17.87;5.40;;;8.00;99.90;;;;;;5083490;28;20210;-45
2022/03/29 11:59:49;;;;;;;14.80;5.17;;;8.10;99.90;;;;;;5086647;28;20276;-47
2022/03/29 12:02:18;;;;;;;10.80;4.60;;;8.00;99.90;;;;;;5069559;27;20553;-43
2022/03/29 12:04:45;;;;;;;9.20;4.97;;;7.90;99.90;;;;;;5077563;27;20222;-44
2022/03/29 12:07:12;;;;;;;14.93;4.70;;;7.90;99.90;;;;;;5081437;27;20500;-45
2022/03/29 12:09:40;;;;;;;13.63;5.17;;;7.90;99.90;;;;;;5083477;27;20498;-46
2022/03/29 12:12:10;;;;;;;17.70;5.50;;;7.80;99.90;;;;;;5079666;27;20226;-45
2022/03/29 12:14:36;;;;;;;17.10;4.67;;;7.80;99.90;;;;;;5086356;27;20235;-44
2022/03/29 12:17:07;;;;;;;12.10;4.57;;;7.80;99.90;;;;;;5093688;27;20471;-45
2022/03/29 12:19:37;;;;;;;13.30;5.77;;;7.80;99.90;;;;;;5094532;27;20570;-44
2022/03/29 12:22:06;;;;;;;13.20;5.40;;;7.80;99.90;;;;;;5082607;27;20279;-45
2022/03/29 12:24:34;;;;;;;14.47;4.80;;;7.70;99.90;;;;;;5099421;27;20251;-44
2022/03/29 12:27:04;;;;;;;20.50;5.30;;;7.80;99.90;;;;;;5070177;27;20641;-45
2022/03/29 12:29:41;;;;;;;13.30;5.10;;;7.80;99.90;;;;;;5096452;27;20204;-43
2022/03/29 12:32:09;;;;;;;15.43;4.77;;;7.80;99.90;;;;;;5094959;27;20227;-45
2022/03/29 12:34:36;;;;;;;15.00;4.73;;;7.90;99.90;;;;;;5092015;27;20279;-44
2022/03/29 12:37:04;;;;;;;11.60;4.77;;;8.00;99.90;;;;;;5093090;28;20677;-45
2022/03/29 12:39:36;;;;;;;13.83;5.17;;;7.90;99.90;;;;;;5071042;27;20289;-44
2022/03/29 12:42:03;;;;;;;13.67;4.67;;;7.90;99.90;;;;;;5063343;28;20531;-45
2022/03/29 12:44:37;;;;;;;12.90;4.97;;;8.00;99.90;;;;;;5096703;27;20224;-44
2022/03/29 12:47:06;;;;;;;10.23;4.30;;;7.90;99.90;;;;;;5087013;27;20591;-45
2022/03/29 12:49:35;;;;;;;12.80;4.37;;;7.90;99.90;;;;;;5090724;27;20525;-44
2022/03/29 12:52:04;;;;;;;21.37;4.57;;;7.80;99.90;;;;;;5058445;27;20247;-45
2022/03/29 12:54:37;;;;;;;9.00;4.27;;;7.80;99.90;;;;;;5056447;27;20229;-45
2022/03/29 12:57:05;;;;;;;12.73;3.87;;;7.90;99.90;;;;;;5071827;27;20495;-46
2022/03/29 12:59:37;;;;;;;12.53;4.10;;;7.90;99.90;;;;;;5056109;27;20210;-49
2022/03/29 13:02:13;;;;;;;9.83;4.07;;;7.90;99.90;;;;;;5087689;27;20226;-44
2022/03/29 13:04:41;;;;;;;7.80;3.87;;;7.80;99.90;;;;;;5065869;28;20216;-47